Time;durP1;ratioP1;P1;durP2;ratioP2;P2;SDS_P1;SDS_P2;PMS_P1;PMS_P2;Temp;Humidity;BMP_temperature;BMP_pressure;BME280_temperature;BME280_humidity;BME280_pressure;Samples;Min_cycle;Max_cycle;Signal;HPM_P1;HPM_P2
2021/04/19 00:00:12;;;;;;;36.05;21.80;;;;;;;1.69;100.00;95977.50;1027481;28;20026;-71
2021/04/19 00:00:43;;;;;;;30.98;21.38;;;;;;;1.71;100.00;95978.09;1029096;28;20019;-70
2021/04/19 00:01:14;;;;;;;32.05;22.17;;;;;;;1.65;100.00;95977.13;1027237;28;20019;-71
2021/04/19 00:01:44;;;;;;;33.85;22.35;;;;;;;1.62;100.00;95980.88;1026686;28;20018;-71
2021/04/19 00:02:15;;;;;;;35.95;22.45;;;;;;;1.64;100.00;95981.50;1022918;29;20023;-71
2021/04/19 00:02:45;;;;;;;35.55;21.98;;;;;;;1.61;100.00;95981.91;1019610;28;20034;-71
2021/04/19 00:03:16;;;;;;;32.60;21.73;;;;;;;1.63;100.00;95976.50;1022246;28;20094;-71
2021/04/19 00:03:46;;;;;;;33.83;21.98;;;;;;;1.61;100.00;95974.13;1026736;28;20019;-70
2021/04/19 00:04:17;;;;;;;31.70;21.23;;;;;;;1.59;100.00;95976.13;1027038;28;20639;-71
2021/04/19 00:04:47;;;;;;;33.45;21.45;;;;;;;1.57;100.00;95972.94;1030879;28;20031;-71
2021/04/19 00:05:18;;;;;;;36.53;22.15;;;;;;;1.55;100.00;95974.94;1029655;28;20019;-70
2021/04/19 00:05:49;;;;;;;31.82;21.64;;;;;;;1.61;100.00;95974.13;1023208;28;20015;-70
2021/04/19 00:06:20;;;;;;;33.88;22.27;;;;;;;1.61;100.00;95979.31;1022696;28;20090;-71
2021/04/19 00:06:50;;;;;;;32.88;20.90;;;;;;;1.61;100.00;95976.72;1022760;29;20023;-71
2021/04/19 00:07:21;;;;;;;32.20;21.17;;;;;;;1.64;100.00;95975.50;1018914;29;20867;-70
2021/04/19 00:07:51;;;;;;;30.85;20.42;;;;;;;1.58;100.00;95977.13;1018701;29;20031;-70
2021/04/19 00:08:21;;;;;;;37.03;22.45;;;;;;;1.65;100.00;95971.94;1026999;28;20019;-70
2021/04/19 00:08:52;;;;;;;32.90;21.95;;;;;;;1.53;100.00;95958.03;1022620;29;20020;-70
2021/04/19 00:09:22;;;;;;;34.65;21.83;;;;;;;1.62;100.00;95980.88;1018116;29;20024;-70
2021/04/19 00:09:53;;;;;;;32.83;22.02;;;;;;;1.63;100.00;95979.09;1015329;29;20028;-70
2021/04/19 00:10:24;;;;;;;33.30;22.00;;;;;;;1.59;100.00;95978.69;1025990;28;20025;-71
2021/04/19 00:10:54;;;;;;;34.65;22.63;;;;;;;1.52;100.00;95961.59;1027011;28;20034;-71
2021/04/19 00:11:25;;;;;;;33.45;21.85;;;;;;;1.53;100.00;95969.16;1027308;28;20495;-70
2021/04/19 00:11:55;;;;;;;33.08;21.40;;;;;;;1.58;100.00;95976.34;1023822;29;20027;-71
2021/04/19 00:12:26;;;;;;;30.20;20.58;;;;;;;1.54;100.00;95981.09;1031639;28;20015;-70
2021/04/19 00:12:56;;;;;;;36.63;23.55;;;;;;;1.51;100.00;95976.34;1031609;28;20034;-72
2021/04/19 00:13:27;;;;;;;32.45;21.60;;;;;;;1.49;100.00;95973.13;1030652;28;20184;-72
2021/04/19 00:13:57;;;;;;;37.60;22.65;;;;;;;1.44;100.00;95966.97;1031859;28;20061;-73
2021/04/19 00:14:28;;;;;;;35.38;22.75;;;;;;;1.44;100.00;95965.16;1023713;29;20090;-71
2021/04/19 00:14:58;;;;;;;34.70;22.02;;;;;;;1.48;100.00;95976.72;1024134;29;20016;-72
2021/04/19 00:15:29;;;;;;;35.53;22.77;;;;;;;1.33;100.00;95956.22;1026470;28;20035;-71
2021/04/19 00:16:00;;;;;;;37.40;22.68;;;;;;;1.38;100.00;95973.75;1028078;28;20237;-71
2021/04/19 00:16:30;;;;;;;32.92;21.88;;;;;;;1.35;100.00;95967.19;1031628;28;20037;-72
2021/04/19 00:17:01;;;;;;;34.78;22.80;;;;;;;1.43;100.00;95973.94;1041934;28;20088;-72
2021/04/19 00:17:32;;;;;;;37.90;24.95;;;;;;;1.37;100.00;95970.34;1031073;28;20018;-71
2021/04/19 00:18:03;;;;;;;33.82;22.44;;;;;;;1.30;100.00;95959.22;1023319;29;20111;-72
2021/04/19 00:18:33;;;;;;;35.40;23.45;;;;;;;1.37;100.00;95967.75;1022844;29;20023;-71
2021/04/19 00:19:04;;;;;;;33.75;21.67;;;;;;;1.36;100.00;95975.72;1027199;28;20011;-70
2021/04/19 00:19:35;;;;;;;34.38;21.83;;;;;;;1.34;100.00;95970.75;1022452;28;20078;-71
2021/04/19 00:20:07;;;;;;;32.08;21.48;;;;;;;1.28;100.00;95963.00;1026964;28;20050;-70
2021/04/19 00:20:38;;;;;;;34.50;22.80;;;;;;;1.34;100.00;95975.13;1027568;28;20034;-70
2021/04/19 00:21:08;;;;;;;36.90;22.88;;;;;;;1.25;100.00;95965.97;1034301;28;20100;-70
2021/04/19 00:21:38;;;;;;;35.97;22.30;;;;;;;1.30;100.00;95971.34;1026722;28;20018;-70
2021/04/19 00:22:09;;;;;;;35.37;23.00;;;;;;;1.32;100.00;95972.75;1025314;28;20025;-70
2021/04/19 00:22:39;;;;;;;39.70;23.92;;;;;;;1.21;100.00;95957.84;1026666;28;20061;-70
2021/04/19 00:23:10;;;;;;;38.90;23.40;;;;;;;1.28;100.00;95968.19;1018451;28;20394;-70
2021/04/19 00:23:40;;;;;;;34.85;23.45;;;;;;;1.22;100.00;95961.22;1022903;28;20114;-70
2021/04/19 00:24:11;;;;;;;37.22;23.85;;;;;;;1.23;100.00;95960.22;1026743;28;20015;-71
2021/04/19 00:24:41;;;;;;;36.10;23.05;;;;;;;1.21;100.00;95959.59;1021155;29;20031;-71
2021/04/19 00:25:12;;;;;;;34.60;22.13;;;;;;;1.28;100.00;95963.78;1022004;28;20034;-70
2021/04/19 00:25:43;;;;;;;35.66;22.76;;;;;;;1.25;100.00;95971.16;1026066;28;20280;-71
2021/04/19 00:26:13;;;;;;;36.37;23.40;;;;;;;1.24;100.00;95972.13;1030527;28;20150;-68
2021/04/19 00:26:44;;;;;;;35.33;23.15;;;;;;;1.26;100.00;95965.78;1026334;28;20447;-71
2021/04/19 00:27:14;;;;;;;35.22;22.30;;;;;;;1.20;100.00;95952.84;1026806;28;20015;-71
2021/04/19 00:27:45;;;;;;;38.33;22.63;;;;;;;1.18;100.00;95951.25;1026621;28;20018;-70
2021/04/19 00:28:15;;;;;;;36.33;24.17;;;;;;;1.16;100.00;95947.28;1025084;28;20524;-71
2021/04/19 00:28:45;;;;;;;34.58;24.13;;;;;;;1.31;100.00;95965.19;1026652;28;20015;-70
2021/04/19 00:29:16;;;;;;;37.92;24.20;;;;;;;1.27;100.00;95962.19;1026665;28;20023;-69
2021/04/19 00:29:46;;;;;;;34.83;22.63;;;;;;;1.21;100.00;95944.09;1030259;28;20018;-70
2021/04/19 00:30:17;;;;;;;33.10;22.67;;;;;;;1.27;100.00;95958.81;1035101;28;20029;-71
2021/04/19 00:30:48;;;;;;;37.10;23.52;;;;;;;1.18;100.00;95953.84;1034407;28;20465;-69
2021/04/19 00:31:18;;;;;;;32.60;21.75;;;;;;;1.29;100.00;95954.25;1026281;28;20050;-70
2021/04/19 00:31:49;;;;;;;35.25;22.48;;;;;;;1.29;100.00;95957.63;1022897;28;20822;-71
2021/04/19 00:32:19;;;;;;;37.07;23.37;;;;;;;1.29;100.00;95956.84;1022749;28;20668;-71
2021/04/19 00:32:50;;;;;;;37.88;23.83;;;;;;;1.28;100.00;95957.84;1027008;28;20019;-71
2021/04/19 00:33:20;;;;;;;38.70;23.88;;;;;;;1.28;100.00;95965.59;1030121;28;20033;-71
2021/04/19 00:33:51;;;;;;;37.85;23.92;;;;;;;1.06;100.00;95932.16;1034301;28;20673;-70
2021/04/19 00:34:21;;;;;;;38.07;24.20;;;;;;;1.27;100.00;95961.41;1031025;28;20034;-71
2021/04/19 00:34:52;;;;;;;37.20;23.67;;;;;;;1.18;100.00;95942.72;1034350;28;20026;-70
2021/04/19 00:35:22;;;;;;;36.03;23.40;;;;;;;1.27;100.00;95959.59;1033851;28;20018;-71
2021/04/19 00:35:52;;;;;;;35.70;23.17;;;;;;;1.26;100.00;95957.22;1030681;28;20034;-70
2021/04/19 00:36:23;;;;;;;34.78;22.85;;;;;;;1.27;100.00;95961.41;1030737;28;20381;-71
2021/04/19 00:36:53;;;;;;;32.97;23.20;;;;;;;1.28;100.00;95966.38;1030820;28;20015;-71
2021/04/19 00:37:24;;;;;;;34.35;22.63;;;;;;;1.31;100.00;95960.81;1030452;28;20034;-70
2021/04/19 00:37:54;;;;;;;36.27;24.23;;;;;;;1.32;100.00;95959.03;1026612;28;20018;-70
2021/04/19 00:38:25;;;;;;;37.40;24.43;;;;;;;1.26;100.00;95942.50;1026144;28;20026;-69
2021/04/19 00:38:55;;;;;;;38.40;23.73;;;;;;;1.36;100.00;95957.63;1022606;28;20075;-71
2021/04/19 00:39:26;;;;;;;36.47;23.23;;;;;;;1.36;100.00;95947.28;1026538;28;20018;-70
2021/04/19 00:39:56;;;;;;;35.70;23.38;;;;;;;1.40;100.00;95956.22;1030730;28;20100;-70
2021/04/19 00:40:27;;;;;;;33.15;23.13;;;;;;;1.44;100.00;95956.63;1030749;28;20670;-71
2021/04/19 00:40:57;;;;;;;34.22;22.58;;;;;;;1.46;100.00;95957.22;1030106;28;20018;-70
2021/04/19 00:41:28;;;;;;;35.35;24.02;;;;;;;1.47;100.00;95954.44;1026526;28;20027;-70
2021/04/19 00:41:59;;;;;;;33.97;23.60;;;;;;;1.49;100.00;95951.66;1020551;28;20488;-71
2021/04/19 00:42:29;;;;;;;35.96;23.96;;;;;;;1.49;100.00;95952.44;1027116;28;20027;-70
2021/04/19 00:43:00;;;;;;;35.75;22.52;;;;;;;1.53;100.00;95955.44;1030971;28;20018;-71
2021/04/19 00:43:30;;;;;;;34.38;22.10;;;;;;;1.53;100.00;95948.47;1027092;28;20023;-70
2021/04/19 00:44:01;;;;;;;32.55;21.65;;;;;;;1.57;100.00;95949.66;1018827;29;20598;-70
2021/04/19 00:44:31;;;;;;;35.33;22.92;;;;;;;1.56;100.00;95950.66;1022662;29;20027;-70
2021/04/19 00:45:04;;;;;;;34.60;21.23;;;;;;;1.58;100.00;95953.06;1026630;28;20109;-70
2021/04/19 00:45:35;;;;;;;34.20;22.22;;;;;;;1.58;100.00;95951.25;1017950;29;20063;-69
2021/04/19 00:46:05;;;;;;;34.07;21.33;;;;;;;1.61;100.00;95953.44;1022583;28;20499;-71
2021/04/19 00:46:36;;;;;;;36.65;22.88;;;;;;;1.62;100.00;95956.81;1018794;28;20061;-70
2021/04/19 00:47:06;;;;;;;34.30;23.10;;;;;;;1.61;100.00;95948.28;1024662;28;20058;-70
2021/04/19 00:47:37;;;;;;;34.17;22.65;;;;;;;1.58;100.00;95937.53;1024543;28;20085;-71
2021/04/19 00:48:08;;;;;;;38.63;22.67;;;;;;;1.65;100.00;95946.09;1026751;28;20019;-69
2021/04/19 00:48:38;;;;;;;38.53;23.05;;;;;;;1.66;100.00;95947.66;1018412;28;20031;-71
2021/04/19 00:49:09;;;;;;;35.58;23.25;;;;;;;1.66;100.00;95947.66;1022975;28;20494;-70
2021/04/19 00:49:39;;;;;;;34.45;22.70;;;;;;;1.61;100.00;95943.09;1014949;29;20845;-70
2021/04/19 00:50:11;;;;;;;33.85;22.17;;;;;;;1.68;100.00;95944.84;1018822;29;20573;-70
2021/04/19 00:50:41;;;;;;;35.36;22.76;;;;;;;1.61;100.00;95937.94;1014737;29;20023;-70
2021/04/19 00:51:12;;;;;;;34.58;22.08;;;;;;;1.70;100.00;95948.06;1025848;28;20395;-71
2021/04/19 00:51:42;;;;;;;35.38;23.40;;;;;;;1.60;100.00;95935.53;1026638;28;20023;-71
2021/04/19 00:52:13;;;;;;;33.10;21.95;;;;;;;1.72;100.00;95940.91;1026539;28;20072;-70
2021/04/19 00:52:43;;;;;;;33.80;22.70;;;;;;;1.67;100.00;95938.91;1026721;28;20492;-70
2021/04/19 00:53:14;;;;;;;37.55;23.70;;;;;;;1.72;100.00;95943.50;1022924;29;20058;-70
2021/04/19 00:53:44;;;;;;;32.47;22.67;;;;;;;1.75;100.00;95949.06;1022351;28;20453;-70
2021/04/19 00:54:15;;;;;;;34.50;22.97;;;;;;;1.77;100.00;95954.81;1021391;29;20027;-71
2021/04/19 00:54:45;;;;;;;35.17;23.15;;;;;;;1.77;100.00;95951.41;1027106;28;20609;-70
2021/04/19 00:55:16;;;;;;;33.78;22.92;;;;;;;1.78;100.00;95950.44;1030060;28;20502;-70
2021/04/19 00:55:46;;;;;;;33.17;21.88;;;;;;;1.72;100.00;95938.31;1022144;28;20023;-70
2021/04/19 00:56:17;;;;;;;36.17;22.98;;;;;;;1.72;100.00;95940.91;1022861;28;20011;-70
2021/04/19 00:56:48;;;;;;;35.50;23.45;;;;;;;1.83;100.00;95950.63;1018798;29;20024;-71
2021/04/19 00:57:18;;;;;;;34.32;23.16;;;;;;;1.81;100.00;95948.25;1022924;29;20023;-71
2021/04/19 00:57:49;;;;;;;32.85;22.58;;;;;;;1.79;100.00;95941.69;1026614;28;20023;-69
2021/04/19 00:58:22;;;;;;;32.67;22.20;;;;;;;1.86;100.00;95948.41;1018724;28;20023;-70
2021/04/19 00:58:52;;;;;;;36.68;23.40;;;;;;;1.87;100.00;95952.59;1018545;29;20655;-71
2021/04/19 00:59:23;;;;;;;36.47;23.42;;;;;;;1.89;100.00;95944.66;1018932;29;20071;-70
2021/04/19 00:59:53;;;;;;;30.63;20.67;;;;;;;1.89;100.00;95947.22;1019195;29;20478;-71
2021/04/19 01:00:27;;;;;;;33.55;22.52;;;;;;;1.91;100.00;95950.41;1023297;28;20019;-70
2021/04/19 01:00:57;;;;;;;35.32;21.94;;;;;;;1.94;100.00;95951.78;1027200;28;20019;-70
2021/04/19 01:01:31;;;;;;;35.22;22.65;;;;;;;1.90;100.00;95948.81;1030808;28;20057;-70
2021/04/19 01:02:01;;;;;;;35.66;22.14;;;;;;;1.80;100.00;95936.28;1022673;29;20118;-71
2021/04/19 01:02:32;;;;;;;33.75;22.90;;;;;;;1.92;100.00;95953.81;1018479;29;20027;-70
2021/04/19 01:03:03;;;;;;;34.38;22.63;;;;;;;1.95;100.00;95953.41;1019067;29;20027;-70
2021/04/19 01:03:33;;;;;;;35.42;22.52;;;;;;;1.94;100.00;95946.59;1018529;29;20020;-71
2021/04/19 01:04:04;;;;;;;33.75;21.63;;;;;;;1.94;100.00;95956.97;1026640;28;20128;-70
2021/04/19 01:04:34;;;;;;;32.25;22.63;;;;;;;1.93;100.00;95947.63;1018827;29;20028;-71
2021/04/19 01:05:16;;;;;;;36.65;22.83;;;;;;;1.88;100.00;95943.84;1017857;29;20024;-70
2021/04/19 01:05:47;;;;;;;33.32;22.16;;;;;;;1.92;100.00;95946.03;1024610;28;20423;-71
2021/04/19 01:06:17;;;;;;;32.42;22.20;;;;;;;1.94;100.00;95952.56;1025833;28;20043;-70
2021/04/19 01:06:48;;;;;;;36.42;22.70;;;;;;;1.95;100.00;95950.81;1030412;28;20025;-69
2021/04/19 01:07:19;;;;;;;33.28;20.98;;;;;;;1.88;100.00;95940.47;1015173;29;20012;-69
2021/04/19 01:07:49;;;;;;;35.20;23.85;;;;;;;1.86;100.00;95932.09;1022944;28;20813;-70
2021/04/19 01:08:20;;;;;;;36.50;23.00;;;;;;;1.87;100.00;95946.63;1023014;29;20019;-69
2021/04/19 01:08:50;;;;;;;34.30;21.80;;;;;;;1.90;100.00;95943.63;1026745;28;20106;-71
2021/04/19 01:09:21;;;;;;;36.38;23.58;;;;;;;1.92;100.00;95946.03;1029409;28;20023;-69
2021/04/19 01:09:51;;;;;;;34.63;22.88;;;;;;;1.93;100.00;95948.41;1026776;28;20106;-69
2021/04/19 01:10:22;;;;;;;31.33;22.13;;;;;;;1.82;100.00;95931.72;1022661;28;20034;-70
2021/04/19 01:10:52;;;;;;;34.72;23.60;;;;;;;1.92;100.00;95948.63;1024326;28;20027;-70
2021/04/19 01:11:23;;;;;;;32.10;21.90;;;;;;;1.92;100.00;95946.03;1024316;28;20015;-69
2021/04/19 01:11:53;;;;;;;34.17;22.63;;;;;;;1.92;100.00;95946.81;1026431;28;20026;-69
2021/04/19 01:12:23;;;;;;;35.78;23.08;;;;;;;1.92;100.00;95941.66;1019310;29;20110;-70
2021/04/19 01:12:54;;;;;;;33.08;21.98;;;;;;;1.83;100.00;95942.88;1021034;28;20480;-70
2021/04/19 01:13:24;;;;;;;36.95;23.30;;;;;;;1.85;100.00;95941.66;1026840;28;20420;-71
2021/04/19 01:13:55;;;;;;;33.88;22.42;;;;;;;1.85;100.00;95941.66;1026887;28;20447;-70
2021/04/19 01:14:25;;;;;;;38.03;23.65;;;;;;;1.84;100.00;95945.22;1025516;28;20034;-70
2021/04/19 01:14:56;;;;;;;36.17;23.35;;;;;;;1.83;100.00;95945.44;1022472;28;20027;-70
2021/04/19 01:15:26;;;;;;;33.97;22.75;;;;;;;1.72;100.00;95930.56;1030404;28;20073;-70
2021/04/19 01:15:57;;;;;;;33.92;23.75;;;;;;;1.82;100.00;95943.88;1034597;28;20030;-70
2021/04/19 01:16:28;;;;;;;34.63;23.35;;;;;;;1.80;100.00;95938.88;1035026;28;20533;-71
2021/04/19 01:16:58;;;;;;;32.85;21.70;;;;;;;1.80;100.00;95943.25;1030037;28;20030;-70
2021/04/19 01:17:28;;;;;;;33.03;23.30;;;;;;;1.76;100.00;95936.91;1026695;28;20496;-70
2021/04/19 01:17:59;;;;;;;35.97;23.35;;;;;;;1.76;100.00;95942.88;1023041;29;20050;-70
2021/04/19 01:18:29;;;;;;;36.97;23.15;;;;;;;1.77;100.00;95941.06;1022388;28;20030;-70
2021/04/19 01:19:00;;;;;;;34.08;22.30;;;;;;;1.74;100.00;95944.84;1026504;28;20038;-70
2021/04/19 01:19:30;;;;;;;34.50;22.92;;;;;;;1.75;100.00;95941.28;1019121;29;20470;-70
2021/04/19 01:20:01;;;;;;;34.00;22.98;;;;;;;1.70;100.00;95940.28;1018849;28;20034;-70
2021/04/19 01:20:36;;;;;;;34.50;23.10;;;;;;;1.72;100.00;95946.88;1026871;28;20448;-70
2021/04/19 01:21:06;;;;;;;39.88;24.76;;;;;;;1.73;100.00;95950.25;1027016;28;20061;-71
2021/04/19 01:21:37;;;;;;;35.33;22.90;;;;;;;1.70;100.00;95942.88;1030608;28;20484;-70
2021/04/19 01:22:07;;;;;;;35.40;23.58;;;;;;;1.73;100.00;95947.66;1027107;28;20023;-71
2021/04/19 01:22:38;;;;;;;35.40;23.48;;;;;;;1.63;100.00;95928.16;1026320;28;20058;-70
2021/04/19 01:23:10;;;;;;;36.65;24.80;;;;;;;1.71;100.00;95939.28;1026528;28;20504;-71
2021/04/19 01:23:40;;;;;;;38.24;23.62;;;;;;;1.76;100.00;95944.66;1031373;28;20037;-70
2021/04/19 01:24:11;;;;;;;34.08;23.38;;;;;;;1.72;100.00;95941.69;1026221;28;20085;-70
2021/04/19 01:24:41;;;;;;;35.38;23.15;;;;;;;1.75;100.00;95937.91;1023100;29;20111;-70
2021/04/19 01:25:14;;;;;;;35.75;24.08;;;;;;;1.76;100.00;95942.09;1018169;29;20055;-70
2021/04/19 01:25:45;;;;;;;38.68;23.66;;;;;;;1.79;100.00;95941.69;1022864;28;20019;-70
2021/04/19 01:26:15;;;;;;;36.25;24.05;;;;;;;1.78;100.00;95937.50;1023010;28;20023;-70
2021/04/19 01:26:45;;;;;;;36.08;23.27;;;;;;;1.78;100.00;95940.09;1027096;28;20030;-70
2021/04/19 01:27:16;;;;;;;37.45;23.48;;;;;;;1.76;100.00;95942.09;1026540;28;20039;-69
2021/04/19 01:27:46;;;;;;;32.03;23.08;;;;;;;1.77;100.00;95943.66;1029253;28;20360;-71
2021/04/19 01:28:21;;;;;;;33.53;22.42;;;;;;;1.73;100.00;95934.72;1034655;28;20032;-69
2021/04/19 01:28:52;;;;;;;35.76;24.78;;;;;;;1.75;100.00;95937.91;1023612;28;20019;-70
2021/04/19 01:29:22;;;;;;;38.63;25.08;;;;;;;1.76;100.00;95936.91;1022392;28;20556;-70
2021/04/19 01:29:53;;;;;;;36.33;23.52;;;;;;;1.75;100.00;95940.50;1010770;29;20430;-71
2021/04/19 01:30:25;;;;;;;34.50;22.92;;;;;;;1.75;100.00;95940.50;1019362;28;20028;-70
2021/04/19 01:30:56;;;;;;;35.36;23.74;;;;;;;1.76;100.00;95940.28;1026978;28;20035;-70
2021/04/19 01:31:26;;;;;;;38.22;23.67;;;;;;;1.76;100.00;95939.50;1026513;28;20023;-70
2021/04/19 01:31:57;;;;;;;39.50;23.73;;;;;;;1.75;100.00;95937.91;1022757;29;20027;-71
2021/04/19 01:32:27;;;;;;;35.25;22.42;;;;;;;1.76;100.00;95945.47;1023321;28;20081;-72
2021/04/19 01:32:58;;;;;;;37.13;23.50;;;;;;;1.75;100.00;95940.50;1022371;28;20031;-70
2021/04/19 01:33:28;;;;;;;35.47;24.30;;;;;;;1.75;100.00;95943.88;1027942;28;20042;-70
2021/04/19 01:33:58;;;;;;;36.83;24.73;;;;;;;1.74;100.00;95944.06;1027824;28;20543;-71
2021/04/19 01:34:29;;;;;;;37.53;22.90;;;;;;;1.73;100.00;95939.91;1028245;28;20030;-71
2021/04/19 01:34:59;;;;;;;39.38;24.50;;;;;;;1.73;100.00;95932.13;1024075;28;20082;-70
2021/04/19 01:35:30;;;;;;;36.75;24.58;;;;;;;1.71;100.00;95939.28;1023868;29;20058;-71
2021/04/19 01:36:00;;;;;;;37.45;24.55;;;;;;;1.72;100.00;95935.72;1024569;29;20035;-70
2021/04/19 01:36:31;;;;;;;38.15;24.38;;;;;;;1.69;100.00;95936.13;1023128;28;20035;-70
2021/04/19 01:37:01;;;;;;;38.25;24.05;;;;;;;1.72;100.00;95938.31;1027768;28;20137;-70
2021/04/19 01:37:32;;;;;;;38.47;24.27;;;;;;;1.72;100.00;95938.31;1027367;28;20035;-70
2021/04/19 01:38:06;;;;;;;37.10;23.45;;;;;;;1.69;100.00;95930.97;1025021;28;20035;-70
2021/04/19 01:38:36;;;;;;;33.30;22.34;;;;;;;1.72;100.00;95940.91;1020924;28;20032;-70
2021/04/19 01:39:07;;;;;;;36.95;23.40;;;;;;;1.67;100.00;95933.72;1027493;28;20558;-71
2021/04/19 01:39:37;;;;;;;41.80;24.88;;;;;;;1.72;100.00;95940.91;1031715;28;20041;-71
2021/04/19 01:40:09;;;;;;;32.78;22.33;;;;;;;1.73;100.00;95939.91;1028410;28;20090;-72
2021/04/19 01:40:40;;;;;;;34.98;23.42;;;;;;;1.71;100.00;95942.69;1019790;29;20031;-71
2021/04/19 01:41:10;;;;;;;38.13;24.05;;;;;;;1.72;100.00;95940.91;1027819;28;20035;-70
2021/04/19 01:41:41;;;;;;;39.63;24.30;;;;;;;1.50;100.00;95906.69;1023361;29;20027;-71
2021/04/19 01:42:11;;;;;;;36.88;23.50;;;;;;;1.65;100.00;95926.19;1031420;28;20030;-70
2021/04/19 01:42:43;;;;;;;35.80;23.65;;;;;;;1.63;100.00;95933.34;1023975;28;20031;-70
2021/04/19 01:43:13;;;;;;;38.64;24.16;;;;;;;1.67;100.00;95932.94;1024499;28;20031;-71
2021/04/19 01:43:44;;;;;;;40.15;24.20;;;;;;;1.71;100.00;95939.28;1022347;29;20027;-70
2021/04/19 01:44:14;;;;;;;35.33;22.70;;;;;;;1.71;100.00;95941.88;1021356;29;20086;-69
2021/04/19 01:44:45;;;;;;;39.08;23.23;;;;;;;1.68;100.00;95940.50;1016892;28;20539;-71
2021/04/19 01:45:16;;;;;;;39.80;23.55;;;;;;;1.64;100.00;95931.53;1015677;29;20039;-70
2021/04/19 01:45:47;;;;;;;35.76;23.76;;;;;;;1.69;100.00;95936.91;1023215;29;20067;-70
2021/04/19 01:46:18;;;;;;;34.16;23.78;;;;;;;1.64;100.00;95940.13;1027132;28;20610;-71
2021/04/19 01:46:48;;;;;;;35.65;23.55;;;;;;;1.68;100.00;95939.69;1027239;28;20081;-70
2021/04/19 01:47:19;;;;;;;32.95;22.60;;;;;;;1.65;100.00;95936.53;1023287;29;20118;-71
2021/04/19 01:47:49;;;;;;;37.90;24.70;;;;;;;1.65;100.00;95935.75;1023150;29;20267;-70
2021/04/19 01:48:23;;;;;;;33.20;23.30;;;;;;;1.66;100.00;95937.31;1019635;29;20035;-71
2021/04/19 01:48:54;;;;;;;37.44;23.98;;;;;;;1.65;100.00;95936.53;1021055;28;20520;-69
2021/04/19 01:49:24;;;;;;;36.53;22.92;;;;;;;1.63;100.00;95941.09;1027664;28;20069;-70
2021/04/19 01:49:55;;;;;;;43.85;25.90;;;;;;;1.63;100.00;95938.50;1026713;28;20473;-69
2021/04/19 01:50:27;;;;;;;37.67;24.55;;;;;;;1.56;100.00;95924.78;1023594;28;20375;-70
2021/04/19 01:50:58;;;;;;;35.96;23.18;;;;;;;1.57;100.00;95928.97;1024434;28;20114;-70
2021/04/19 01:51:28;;;;;;;36.38;24.02;;;;;;;1.62;100.00;95928.38;1019168;29;20039;-69
2021/04/19 01:52:00;;;;;;;39.55;24.80;;;;;;;1.55;100.00;95930.97;1023346;29;20031;-70
2021/04/19 01:52:30;;;;;;;36.78;23.58;;;;;;;1.63;100.00;95940.31;1023023;28;20468;-69
2021/04/19 01:53:01;;;;;;;37.17;23.95;;;;;;;1.54;100.00;95929.38;1024137;28;20042;-70
2021/04/19 01:53:31;;;;;;;37.00;23.73;;;;;;;1.61;100.00;95937.13;1035028;28;20068;-70
2021/04/19 01:54:02;;;;;;;34.03;23.08;;;;;;;1.61;100.00;95937.94;1035231;28;20026;-69
2021/04/19 01:54:33;;;;;;;35.22;22.83;;;;;;;1.61;100.00;95929.34;1035043;28;20650;-69
2021/04/19 01:55:05;;;;;;;37.03;24.48;;;;;;;1.61;100.00;95935.34;1029319;28;20018;-69
2021/04/19 01:55:37;;;;;;;35.32;23.06;;;;;;;1.61;100.00;95935.34;1018838;29;20023;-70
2021/04/19 01:56:07;;;;;;;35.68;23.40;;;;;;;1.65;100.00;95939.13;1023923;28;20097;-69
2021/04/19 01:56:38;;;;;;;33.83;22.70;;;;;;;1.58;100.00;95930.56;1027961;28;20034;-70
2021/04/19 01:57:09;;;;;;;34.90;23.48;;;;;;;1.56;100.00;95932.56;1023376;28;20026;-69
2021/04/19 01:57:41;;;;;;;35.92;24.98;;;;;;;1.57;100.00;95928.16;1027512;28;20370;-70
2021/04/19 01:58:16;;;;;;;37.98;23.42;;;;;;;1.52;100.00;95921.03;1023111;29;20087;-70
2021/04/19 01:58:46;;;;;;;36.20;23.62;;;;;;;1.50;100.00;95923.00;1019043;29;20102;-70
2021/04/19 01:59:17;;;;;;;35.45;22.50;;;;;;;1.55;100.00;95936.16;1015566;29;20661;-70
2021/04/19 01:59:47;;;;;;;35.80;23.98;;;;;;;1.54;100.00;95931.97;1019230;29;20027;-70
2021/04/19 02:00:18;;;;;;;36.90;24.30;;;;;;;1.51;100.00;95928.97;1025972;28;20031;-71
2021/04/19 02:00:52;;;;;;;38.45;24.15;;;;;;;1.44;100.00;95928.19;1027092;28;20019;-70
2021/04/19 02:01:23;;;;;;;41.44;24.52;;;;;;;1.49;100.00;95936.94;1027330;28;20504;-69
2021/04/19 02:02:02;;;;;;;39.75;24.48;;;;;;;1.48;100.00;95935.34;1021061;28;20020;-69
2021/04/19 02:02:39;;;;;;;42.83;24.77;;;;;;;1.48;100.00;95939.75;1023131;29;20026;-70
2021/04/19 02:03:37;;;;;;;37.34;24.08;;;;;;;1.48;100.00;95945.69;1023140;29;20038;-69
2021/04/19 02:04:15;;;;;;;38.50;23.34;;;;;;;1.46;100.00;95937.34;1034675;28;20033;-70
2021/04/19 02:05:02;;;;;;;38.04;24.64;;;;;;;1.46;100.00;95939.13;1027390;28;20105;-71
2021/04/19 02:05:37;;;;;;;36.86;22.96;;;;;;;1.44;100.00;95936.72;1022575;28;20027;-70
2021/04/19 02:06:26;;;;;;;42.22;26.04;;;;;;;1.46;100.00;95936.53;1027102;28;20042;-69
2021/04/19 02:07:20;;;;;;;38.52;24.04;;;;;;;1.46;100.00;95942.50;1030660;28;20022;-70
2021/04/19 02:08:15;;;;;;;37.86;24.16;;;;;;;1.45;100.00;95946.09;1028122;28;20062;-70
2021/04/19 02:09:32;;;;;;;37.04;23.26;;;;;;;1.46;100.00;95939.91;1036215;28;20496;-69
2021/04/19 02:10:08;;;;;;;39.50;21.94;;;;;;;1.44;100.00;95943.69;1027095;28;20054;-70
2021/04/19 02:11:06;;;;;;;37.72;22.68;;;;;;;1.42;100.00;95938.75;1015442;29;20080;-70
2021/04/19 02:12:00;;;;;;;39.50;23.92;;;;;;;1.42;100.00;95943.91;1011673;29;20072;-70
2021/04/19 02:12:37;;;;;;;34.36;22.36;;;;;;;1.40;100.00;95938.13;1025649;28;20031;-70
2021/04/19 02:13:22;;;;;;;38.66;24.16;;;;;;;1.40;100.00;95944.09;1035037;28;20060;-69
2021/04/19 02:14:14;;;;;;;35.36;23.58;;;;;;;1.39;100.00;95942.50;1031160;28;20065;-70
2021/04/19 02:14:47;;;;;;;35.92;23.76;;;;;;;1.37;100.00;95941.13;1031148;28;20026;-70
2021/04/19 02:15:36;;;;;;;42.98;24.38;;;;;;;1.38;100.00;95937.56;1031042;28;20026;-70
2021/04/19 02:16:13;;;;;;;40.22;24.54;;;;;;;1.34;100.00;95939.75;1030969;28;20018;-71
2021/04/19 02:16:49;;;;;;;39.15;23.73;;;;;;;1.33;100.00;95937.34;1027588;28;20034;-69
2021/04/19 02:17:43;;;;;;;39.32;24.86;;;;;;;1.32;100.00;95936.56;1030809;28;20033;-69
2021/04/19 02:18:19;;;;;;;39.96;24.06;;;;;;;1.35;100.00;95943.13;1027360;28;20484;-70
2021/04/19 02:18:52;;;;;;;40.48;25.04;;;;;;;1.34;100.00;95938.91;1018929;29;20066;-70
2021/04/19 02:19:38;;;;;;;43.64;25.16;;;;;;;1.35;100.00;95935.38;1023409;29;20054;-70
2021/04/19 02:20:30;;;;;;;35.90;24.38;;;;;;;1.32;100.00;95933.97;1034144;28;20026;-70
2021/04/19 02:21:08;;;;;;;37.15;23.80;;;;;;;1.31;100.00;95932.38;1039665;28;20108;-70
2021/04/19 02:21:52;;;;;;;40.64;24.96;;;;;;;1.28;100.00;95930.19;1027084;28;20031;-70
2021/04/19 02:22:28;;;;;;;42.36;25.54;;;;;;;1.31;100.00;95934.19;1016743;29;20111;-70
2021/04/19 02:23:00;;;;;;;36.00;24.36;;;;;;;1.28;100.00;95930.19;1013826;29;20024;-68
2021/04/19 02:23:34;;;;;;;43.64;26.52;;;;;;;1.26;100.00;95927.00;1024558;28;20038;-69
2021/04/19 02:24:06;;;;;;;40.06;24.90;;;;;;;1.35;100.00;95940.53;1021828;28;20544;-69
2021/04/19 02:24:39;;;;;;;39.88;25.40;;;;;;;1.34;100.00;95934.56;1019122;29;20565;-70
2021/04/19 02:25:31;;;;;;;37.54;24.46;;;;;;;1.30;100.00;95927.41;1018781;29;20103;-69
2021/04/19 02:26:17;;;;;;;42.53;25.52;;;;;;;1.34;100.00;95944.09;1026877;28;20033;-69
2021/04/19 02:26:57;;;;;;;37.86;23.12;;;;;;;1.34;100.00;95933.75;1032104;28;20404;-70
2021/04/19 02:27:37;;;;;;;36.85;23.58;;;;;;;1.30;100.00;95932.56;1026243;28;20027;-69
2021/04/19 02:28:14;;;;;;;38.28;24.25;;;;;;;1.34;100.00;95933.75;1027058;28;20970;-71
2021/04/19 02:28:54;;;;;;;42.26;25.02;;;;;;;1.32;100.00;95935.75;1023195;29;20107;-70
2021/04/19 02:29:31;;;;;;;41.30;24.60;;;;;;;1.36;100.00;95939.53;1022965;28;20024;-70